Time;durP1;ratioP1;P1;durP2;ratioP2;P2;SDS_P1;SDS_P2;PMS_P1;PMS_P2;Temp;Humidity;BMP_temperature;BMP_pressure;BME280_temperature;BME280_humidity;BME280_pressure;Samples;Min_cycle;Max_cycle;Signal;HPM_P1;HPM_P2
2022/06/12 00:00:27;;;;;;;6.10;5.03;;;;;;;15.08;100.00;101279.13;5003538;28;20231;-76
2022/06/12 00:02:54;;;;;;;7.27;5.17;;;;;;;15.04;100.00;101277.50;5010786;28;20219;-76
2022/06/12 00:05:22;;;;;;;5.80;5.20;;;;;;;14.98;100.00;101285.59;4998515;28;20216;-76
2022/06/12 00:07:49;;;;;;;7.13;5.23;;;;;;;14.97;100.00;101282.13;4997833;28;20217;-76
2022/06/12 00:10:17;;;;;;;6.80;5.33;;;;;;;14.85;100.00;101288.66;4999103;28;20822;-76
2022/06/12 00:12:44;;;;;;;6.20;5.07;;;;;;;14.87;100.00;101285.97;5001839;28;20212;-76
2022/06/12 00:15:14;;;;;;;6.50;4.77;;;;;;;14.80;100.00;101290.56;4999732;28;20241;-76
2022/06/12 00:17:43;;;;;;;7.60;5.30;;;;;;;14.76;100.00;101287.19;5000145;28;20201;-76
2022/06/12 00:20:12;;;;;;;7.53;5.60;;;;;;;14.66;100.00;101296.25;4993285;28;20332;-76
2022/06/12 00:22:39;;;;;;;7.80;5.80;;;;;;;14.67;100.00;101295.38;4998770;28;20673;-76
2022/06/12 00:25:09;;;;;;;6.00;5.13;;;;;;;14.66;100.00;101298.03;4999461;28;20220;-77
2022/06/12 00:27:37;;;;;;;8.97;5.63;;;;;;;14.65;100.00;101291.94;4999513;28;20711;-76
2022/06/12 00:30:04;;;;;;;7.17;5.47;;;;;;;14.55;100.00;101287.84;4997886;28;20209;-77
2022/06/12 00:32:31;;;;;;;8.63;5.87;;;;;;;14.53;100.00;101292.31;4999415;28;20878;-76
2022/06/12 00:34:59;;;;;;;6.87;5.67;;;;;;;14.44;100.00;101296.06;5001632;28;20634;-77
2022/06/12 00:37:33;;;;;;;9.47;5.50;;;;;;;14.42;100.00;101294.38;5000153;28;20677;-77
2022/06/12 00:39:59;;;;;;;10.47;5.83;;;;;;;14.41;100.00;101288.28;4998925;28;20946;-76
2022/06/12 00:42:32;;;;;;;7.70;5.80;;;;;;;14.43;100.00;101291.72;4998661;28;20581;-77
2022/06/12 00:45:03;;;;;;;7.27;5.77;;;;;;;14.31;100.00;101282.47;4994568;28;20228;-76
2022/06/12 00:47:30;;;;;;;7.27;5.90;;;;;;;14.26;100.00;101281.75;4999992;28;20225;-75
2022/06/12 00:50:00;;;;;;;9.27;5.47;;;;;;;14.27;100.00;101280.84;4998558;28;20214;-75
2022/06/12 00:52:34;;;;;;;7.97;5.73;;;;;;;14.18;100.00;101279.38;4998612;28;20209;-75
2022/06/12 00:55:06;;;;;;;9.47;5.57;;;;;;;14.22;100.00;101276.66;4996403;28;20229;-76
2022/06/12 00:57:33;;;;;;;6.20;5.60;;;;;;;14.10;100.00;101273.50;4994726;28;20232;-75
2022/06/12 01:00:05;;;;;;;8.57;4.83;;;;;;;14.13;100.00;101283.91;5000207;28;20276;-75
2022/06/12 01:02:34;;;;;;;7.77;5.53;;;;;;;14.19;100.00;101282.84;4998021;28;20694;-75
2022/06/12 01:07:51;;;;;;;5.80;4.80;;;;;;;13.95;100.00;101294.94;4998741;28;20240;-75
2022/06/12 01:10:19;;;;;;;5.23;4.73;;;;;;;14.09;100.00;101286.66;4996863;28;20215;-75
2022/06/12 01:12:50;;;;;;;5.67;4.73;;;;;;;14.06;100.00;101292.84;4994349;28;20208;-75
2022/06/12 01:15:21;;;;;;;6.80;4.63;;;;;;;14.05;100.00;101295.53;4996976;28;20197;-75
2022/06/12 01:17:48;;;;;;;7.90;4.93;;;;;;;13.95;100.00;101281.84;4996646;28;20197;-75
2022/06/12 01:20:19;;;;;;;8.37;5.17;;;;;;;13.86;100.00;101292.56;5004206;28;20670;-75
2022/06/12 01:23:12;;;;;;;7.67;5.03;;;;;;;13.75;100.00;101285.88;4996299;28;20193;-76
2022/06/12 01:26:03;;;;;;;5.60;4.27;;;;;;;13.88;100.00;101286.41;4998362;28;20256;-75
2022/06/12 01:28:44;;;;;;;5.63;4.30;;;;;;;13.95;100.00;101287.94;4997087;28;20197;-75
2022/06/12 01:31:23;;;;;;;9.20;5.20;;;;;;;13.89;100.00;101289.88;4995677;28;20212;-76
2022/06/12 01:33:59;;;;;;;6.43;4.73;;;;;;;13.71;100.00;101293.88;5000984;28;20224;-75
2022/06/12 01:36:32;;;;;;;5.47;4.87;;;;;;;13.75;100.00;101288.50;4995942;28;20188;-75
2022/06/12 01:39:09;;;;;;;5.40;4.50;;;;;;;13.69;100.00;101278.22;4998373;28;20207;-75
2022/06/12 01:41:44;;;;;;;4.93;4.43;;;;;;;13.67;100.00;101287.00;4998473;28;20196;-75
2022/06/12 01:44:19;;;;;;;5.23;4.50;;;;;;;13.67;100.00;101281.75;4999402;28;20568;-75
2022/06/12 01:46:52;;;;;;;4.90;4.30;;;;;;;13.75;100.00;101282.41;4996220;28;20221;-75
2022/06/12 01:49:24;;;;;;;4.67;3.97;;;;;;;13.85;100.00;101283.88;5001137;28;20362;-75
2022/06/12 01:51:57;;;;;;;5.90;4.63;;;;;;;13.77;100.00;101285.84;4995603;28;20203;-75
2022/06/12 01:54:31;;;;;;;5.03;4.30;;;;;;;13.66;100.00;101282.69;5001101;28;20219;-75
2022/06/12 01:57:04;;;;;;;6.37;4.33;;;;;;;13.58;100.00;101275.91;5001833;28;20198;-75
2022/06/12 01:59:38;;;;;;;5.57;4.47;;;;;;;13.47;100.00;101283.19;4996588;28;20203;-75
2022/06/12 02:02:12;;;;;;;6.00;4.37;;;;;;;13.48;100.00;101287.53;4994627;28;20202;-76
2022/06/12 02:04:45;;;;;;;5.87;4.97;;;;;;;13.50;100.00;101288.34;5030261;23;20230;-72
2022/06/12 02:07:18;;;;;;;5.07;4.50;;;;;;;13.44;100.00;101284.13;5042123;28;20226;-72
2022/06/12 02:09:52;;;;;;;5.63;4.10;;;;;;;13.46;100.00;101283.25;5042818;28;20209;-72
2022/06/12 02:15:18;;;;;;;5.57;4.90;;;;;;;13.29;100.00;101279.28;5033015;28;20223;-71
2022/06/12 02:17:48;;;;;;;5.33;4.20;;;;;;;13.21;100.00;101283.88;5040286;28;20195;-71
2022/06/12 02:20:19;;;;;;;5.23;4.40;;;;;;;13.20;100.00;101277.75;5042632;28;20201;-72
2022/06/12 02:22:47;;;;;;;6.20;4.57;;;;;;;13.22;100.00;101280.34;5038096;28;20209;-72
2022/06/12 02:25:18;;;;;;;6.57;4.87;;;;;;;13.25;100.00;101278.50;5043346;28;20357;-72
2022/06/12 02:27:50;;;;;;;5.97;4.27;;;;;;;13.15;100.00;101271.78;5044793;28;20671;-72
2022/06/12 02:30:22;;;;;;;4.70;4.27;;;;;;;13.23;100.00;101271.59;5039677;28;20206;-72
2022/06/12 02:32:56;;;;;;;6.43;4.70;;;;;;;13.21;100.00;101270.78;5036837;28;20194;-72
2022/06/12 02:35:26;;;;;;;4.83;4.20;;;;;;;13.16;100.00;101272.66;5044467;28;20301;-71
2022/06/12 02:37:57;;;;;;;5.77;4.53;;;;;;;13.22;100.00;101275.13;5042700;28;20198;-72
2022/06/12 02:40:28;;;;;;;8.00;4.93;;;;;;;13.18;100.00;101269.09;5034553;28;20206;-72
2022/06/12 02:42:57;;;;;;;4.80;4.30;;;;;;;13.22;100.00;101267.25;5042624;28;20280;-72
2022/06/12 02:45:33;;;;;;;4.80;4.27;;;;;;;13.17;100.00;101267.38;5037374;28;20225;-72
2022/06/12 02:48:00;;;;;;;5.63;4.73;;;;;;;13.19;100.00;101264.72;5042283;28;20680;-71
2022/06/12 02:50:32;;;;;;;5.87;4.70;;;;;;;13.11;100.00;101254.47;5042633;28;20204;-72
2022/06/12 02:53:09;;;;;;;5.77;4.43;;;;;;;13.02;100.00;101267.78;5039738;28;20573;-72
2022/06/12 02:55:44;;;;;;;5.90;4.60;;;;;;;12.97;100.00;101267.91;5040737;28;20706;-72
2022/06/12 02:58:19;;;;;;;7.87;4.23;;;;;;;13.03;100.00;101254.66;5038691;28;20198;-72
2022/06/12 03:00:51;;;;;;;5.53;4.00;;;;;;;13.05;100.00;101267.69;5041391;28;20227;-71
2022/06/12 03:03:25;;;;;;;5.03;4.03;;;;;;;13.10;100.00;101257.13;5042953;28;20201;-72
2022/06/12 03:05:57;;;;;;;5.33;4.03;;;;;;;13.18;100.00;101257.78;5036741;28;20630;-72
2022/06/12 03:08:28;;;;;;;5.57;4.27;;;;;;;13.20;100.00;101250.72;5042234;28;20513;-71
2022/06/12 03:10:58;;;;;;;6.53;4.43;;;;;;;13.11;100.00;101258.84;5045130;28;20206;-72
2022/06/12 03:13:26;;;;;;;6.27;4.20;;;;;;;13.12;100.00;101257.91;5041729;28;20696;-72
2022/06/12 03:15:59;;;;;;;4.37;3.83;;;;;;;13.20;100.00;101248.97;5040978;28;20219;-72
2022/06/12 03:18:29;;;;;;;6.47;3.30;;;;;;;13.24;100.00;101255.84;5042982;28;20319;-71
2022/06/12 03:21:16;;;;;;;5.10;4.00;;;;;;;13.28;100.00;101251.41;5041217;28;20219;-70
2022/06/12 03:23:57;;;;;;;4.53;3.57;;;;;;;13.34;100.00;101253.84;5042989;28;20230;-72
2022/06/12 03:26:36;;;;;;;5.73;4.40;;;;;;;13.32;100.00;101258.28;5040412;28;20200;-72
2022/06/12 03:29:16;;;;;;;5.00;4.03;;;;;;;13.36;100.00;101248.59;5037883;28;20213;-72
2022/06/12 03:31:54;;;;;;;5.07;4.03;;;;;;;13.39;100.00;101259.84;5038553;28;20566;-72
2022/06/12 03:34:33;;;;;;;4.60;4.10;;;;;;;13.53;100.00;101251.59;5037136;28;20895;-71
2022/06/12 03:37:05;;;;;;;8.30;4.57;;;;;;;13.56;100.00;101248.88;5034264;28;20221;-72
2022/06/12 03:39:40;;;;;;;5.90;4.13;;;;;;;13.62;100.00;101256.56;5041436;28;20685;-72
2022/06/12 03:42:15;;;;;;;6.63;4.33;;;;;;;13.66;100.00;101259.94;5044104;28;20216;-72
2022/06/12 03:44:47;;;;;;;5.53;4.47;;;;;;;13.64;100.00;101265.22;5040650;28;20239;-72
2022/06/12 03:47:19;;;;;;;6.50;4.43;;;;;;;13.70;100.00;101266.84;5037624;28;20222;-72
2022/06/12 03:49:51;;;;;;;5.70;3.87;;;;;;;13.78;100.00;101271.84;5034970;28;20206;-71
2022/06/12 03:52:25;;;;;;;5.47;4.20;;;;;;;13.93;100.00;101271.41;5044432;28;20267;-73
2022/06/12 03:54:57;;;;;;;5.00;4.43;;;;;;;14.02;100.00;101275.50;5041018;28;20572;-72
2022/06/12 04:00:18;;;;;;;5.43;4.00;;;;;;;14.19;100.00;101275.84;5040947;28;20213;-71
2022/06/12 04:02:48;;;;;;;6.10;4.50;;;;;;;14.32;100.00;101270.22;5040791;28;20216;-72
2022/06/12 04:05:20;;;;;;;5.23;3.93;;;;;;;14.50;100.00;101272.25;5031887;28;20602;-72
2022/06/12 04:07:50;;;;;;;5.17;3.93;;;;;;;14.63;100.00;101272.72;5040518;28;20635;-73
2022/06/12 04:10:19;;;;;;;7.73;3.93;;;;;;;14.83;100.00;101273.84;5038708;28;20206;-72
2022/06/12 04:12:47;;;;;;;4.97;4.37;;;;;;;14.98;100.00;101267.22;5041774;28;20211;-72
2022/06/12 04:15:17;;;;;;;4.60;4.03;;;;;;;15.04;100.00;101267.88;5039524;28;20230;-72
2022/06/12 04:17:44;;;;;;;4.87;3.83;;;;;;;15.15;100.00;101265.72;5041294;28;20195;-71
2022/06/12 04:20:16;;;;;;;4.33;3.67;;;;;;;15.31;100.00;101263.41;5041623;28;20208;-72
2022/06/12 04:22:50;;;;;;;4.67;3.90;;;;;;;15.43;100.00;101263.91;5040062;28;20213;-72
2022/06/12 04:25:33;;;;;;;5.07;4.17;;;;;;;15.55;100.00;101257.31;5039540;28;20233;-72
2022/06/12 04:28:00;;;;;;;4.50;4.00;;;;;;;15.66;100.00;101252.53;5039254;28;20427;-73
2022/06/12 04:30:30;;;;;;;4.33;3.93;;;;;;;15.75;100.00;101260.09;5040121;28;20200;-72
2022/06/12 04:33:16;;;;;;;8.33;3.73;;;;;;;15.84;100.00;101254.50;5037684;28;20198;-73
2022/06/12 04:35:49;;;;;;;8.67;4.10;;;;;;;15.99;100.00;101250.44;5034238;28;20235;-72
2022/06/12 04:38:16;;;;;;;4.37;3.97;;;;;;;16.12;100.00;101261.31;5038234;28;20192;-73
2022/06/12 04:40:42;;;;;;;4.87;3.50;;;;;;;16.26;100.00;101261.63;5042612;28;20202;-72
2022/06/12 04:43:08;;;;;;;5.87;4.07;;;;;;;16.41;100.00;101267.19;5034732;28;20204;-73
2022/06/12 04:45:35;;;;;;;4.10;3.70;;;;;;;16.59;100.00;101271.72;5035705;28;20223;-72
2022/06/12 04:48:03;;;;;;;4.07;3.67;;;;;;;16.66;100.00;101270.53;5037502;28;20224;-72
2022/06/12 04:50:29;;;;;;;8.80;3.90;;;;;;;16.74;100.00;101267.56;5039596;28;20195;-73
2022/06/12 04:52:57;;;;;;;4.33;3.93;;;;;;;16.90;100.00;101266.97;5038014;28;20199;-72
2022/06/12 04:55:23;;;;;;;4.47;3.80;;;;;;;17.04;100.00;101277.78;5040902;28;20590;-73
2022/06/12 04:57:49;;;;;;;6.27;4.47;;;;;;;17.08;100.00;101279.38;5040530;28;20686;-72
2022/06/12 05:00:18;;;;;;;5.33;4.47;;;;;;;17.18;100.00;101262.25;5039312;28;20214;-72
2022/06/12 05:02:44;;;;;;;7.57;4.27;;;;;;;17.30;100.00;101266.09;5035006;28;20231;-73
2022/06/12 05:05:11;;;;;;;7.53;3.97;;;;;;;17.46;100.00;101265.44;5040288;28;20248;-72
2022/06/12 05:07:37;;;;;;;4.50;4.10;;;;;;;17.59;100.00;101266.59;5038550;28;20230;-72
2022/06/12 05:10:06;;;;;;;5.97;3.47;;;;;;;17.72;99.91;101261.63;5040144;28;20204;-72
2022/06/12 05:12:33;;;;;;;4.30;3.90;;;;;;;17.83;98.68;101269.03;5039017;28;20238;-73
2022/06/12 05:14:59;;;;;;;5.60;3.80;;;;;;;17.95;99.70;101264.06;5036006;28;20606;-72
2022/06/12 05:17:27;;;;;;;4.40;3.30;;;;;;;18.05;97.51;101267.13;5038695;28;20191;-72
2022/06/12 05:19:53;;;;;;;3.37;3.07;;;;;;;18.19;97.49;101257.69;5039458;28;20207;-73
2022/06/12 05:22:22;;;;;;;6.30;3.53;;;;;;;18.29;96.43;101267.75;5041036;28;20195;-73
2022/06/12 05:24:49;;;;;;;5.57;3.23;;;;;;;18.39;97.00;101267.31;5039643;28;20227;-72
2022/06/12 05:27:20;;;;;;;3.53;3.23;;;;;;;18.47;95.77;101263.34;5036444;28;20220;-72
2022/06/12 05:29:47;;;;;;;4.53;3.20;;;;;;;18.62;95.74;101271.44;5038273;28;20651;-72
2022/06/12 05:32:16;;;;;;;3.43;2.93;;;;;;;18.73;93.84;101266.47;5035621;28;20248;-73
2022/06/12 05:34:43;;;;;;;6.40;3.07;;;;;;;18.88;93.25;101270.19;5032690;28;20223;-72
2022/06/12 05:37:11;;;;;;;3.50;3.20;;;;;;;19.02;91.47;101259.75;5037311;28;20199;-73
2022/06/12 05:39:38;;;;;;;3.77;2.93;;;;;;;19.17;90.36;101262.53;5040684;28;20191;-73
2022/06/12 05:42:05;;;;;;;5.27;3.33;;;;;;;19.29;90.19;101261.88;5033485;28;20208;-73
2022/06/12 05:44:33;;;;;;;3.23;2.80;;;;;;;19.43;90.24;101261.16;5030332;28;20224;-73
2022/06/12 05:47:00;;;;;;;4.40;3.03;;;;;;;19.56;88.42;101267.50;5041379;28;20208;-73
2022/06/12 05:49:27;;;;;;;3.27;2.57;;;;;;;19.67;85.80;101270.41;5035452;28;20578;-73
2022/06/12 05:51:53;;;;;;;3.57;2.60;;;;;;;19.89;84.15;101273.72;5035424;28;20575;-71
2022/06/12 05:54:20;;;;;;;3.17;2.10;;;;;;;20.00;83.13;101274.84;5036205;28;20224;-71
2022/06/12 05:56:46;;;;;;;2.60;2.40;;;;;;;20.08;81.85;101273.56;5030978;28;20211;-72
2022/06/12 05:59:12;;;;;;;5.50;2.90;;;;;;;20.19;83.08;101274.66;5038965;28;20202;-73
2022/06/12 06:01:42;;;;;;;3.40;2.70;;;;;;;20.28;83.62;101275.06;5033308;28;20203;-73
2022/06/12 06:04:08;;;;;;;2.70;2.50;;;;;;;20.36;83.03;101273.69;5035735;28;20223;-73
2022/06/12 06:06:38;;;;;;;5.60;2.80;;;;;;;20.51;82.55;101271.97;5038552;28;20202;-73
2022/06/12 06:09:07;;;;;;;4.33;2.73;;;;;;;20.69;82.09;101266.59;5021633;28;20234;-72
2022/06/12 06:11:33;;;;;;;4.50;3.20;;;;;;;20.82;79.83;101278.16;5036344;28;20439;-73
2022/06/12 06:14:00;;;;;;;3.20;2.70;;;;;;;20.98;78.77;101271.03;5038298;28;20765;-73
2022/06/12 06:16:27;;;;;;;2.53;2.30;;;;;;;21.14;78.33;101270.94;5037902;28;20195;-73
2022/06/12 06:18:56;;;;;;;6.07;2.57;;;;;;;21.34;78.72;101269.72;5040970;28;20192;-72
2022/06/12 06:21:22;;;;;;;5.17;2.60;;;;;;;21.50;78.00;101269.66;5033997;28;20208;-73
2022/06/12 06:23:49;;;;;;;3.00;2.27;;;;;;;21.63;78.10;101267.09;5039495;28;20227;-73
2022/06/12 06:26:16;;;;;;;2.63;2.43;;;;;;;21.78;77.91;101272.41;5036563;28;20203;-71
2022/06/12 06:28:52;;;;;;;2.37;2.17;;;;;;;21.95;75.25;101266.84;5040521;28;20251;-73
2022/06/12 06:31:20;;;;;;;3.33;2.47;;;;;;;22.07;76.09;101274.03;5033570;28;20276;-73
2022/06/12 06:33:46;;;;;;;2.90;2.50;;;;;;;22.15;76.32;101276.22;5042928;28;20219;-73
2022/06/12 06:36:16;;;;;;;2.37;2.03;;;;;;;22.27;75.38;101279.91;5038350;28;20206;-73
2022/06/12 06:38:43;;;;;;;2.17;1.97;;;;;;;22.50;73.83;101283.72;5042353;28;20244;-72
2022/06/12 06:41:10;;;;;;;2.40;2.00;;;;;;;22.81;74.97;101281.66;5039725;28;20647;-73
2022/06/12 06:46:16;;;;;;;2.72;2.30;;;;;;;22.78;70.17;101282.72;5022730;28;20204;-73
2022/06/12 06:48:43;;;;;;;3.22;2.40;;;;;;;22.77;70.56;101275.69;5037380;28;20208;-73
2022/06/12 06:51:09;;;;;;;3.30;2.15;;;;;;;22.79;70.73;101280.91;5039567;28;20218;-72
2022/06/12 06:53:37;;;;;;;2.60;2.00;;;;;;;22.87;70.96;101278.59;5040824;28;20609;-73
2022/06/12 06:56:04;;;;;;;3.22;2.20;;;;;;;22.98;70.97;101272.53;5036256;28;20197;-71
2022/06/12 06:58:31;;;;;;;3.63;2.20;;;;;;;23.04;70.09;101272.97;5039627;28;20206;-73
2022/06/12 07:00:58;;;;;;;2.67;2.10;;;;;;;23.25;70.35;101269.81;5030185;28;20204;-73
2022/06/12 07:03:25;;;;;;;2.60;1.98;;;;;;;23.50;66.61;101279.59;5036390;28;20218;-73
2022/06/12 07:05:52;;;;;;;2.30;1.88;;;;;;;23.50;66.02;101286.72;5039005;28;20211;-73
2022/06/12 07:08:20;;;;;;;2.10;2.00;;;;;;;23.45;63.98;101279.06;5038045;28;20219;-73
2022/06/12 07:10:48;;;;;;;3.28;1.95;;;;;;;23.46;63.44;101285.25;5036655;28;20594;-73
2022/06/12 07:13:15;;;;;;;2.50;2.30;;;;;;;23.62;63.63;101284.06;5040067;28;20203;-73
2022/06/12 07:15:42;;;;;;;3.90;2.40;;;;;;;23.73;66.01;101277.13;5036867;28;20534;-73
2022/06/12 07:18:10;;;;;;;2.72;2.38;;;;;;;23.78;62.45;101283.81;5035860;28;20211;-73
2022/06/12 07:20:39;;;;;;;2.53;2.22;;;;;;;23.93;61.49;101291.69;5038964;28;20338;-71
2022/06/12 07:23:07;;;;;;;4.97;2.33;;;;;;;23.91;60.93;101288.28;5043736;28;20207;-73
2022/06/12 07:25:39;;;;;;;2.45;2.13;;;;;;;23.87;60.43;101289.47;5037503;28;20690;-73
2022/06/12 07:28:07;;;;;;;3.72;2.13;;;;;;;23.76;61.37;101283.09;5041533;28;20595;-73
2022/06/12 07:30:33;;;;;;;2.03;1.92;;;;;;;23.58;61.07;101282.56;5044769;28;20191;-73
2022/06/12 07:33:00;;;;;;;3.58;1.90;;;;;;;23.51;59.36;101281.28;5043756;28;20199;-72
2022/06/12 07:35:26;;;;;;;2.40;2.20;;;;;;;23.44;59.45;101280.03;5037586;28;20649;-73
2022/06/12 07:41:40;;;;;;;2.50;1.90;;;;;;;23.44;59.59;101280.88;5036679;28;20301;-72
2022/06/12 07:44:08;;;;;;;2.38;2.05;;;;;;;23.40;59.19;101276.72;5040618;28;20698;-73
2022/06/12 07:46:35;;;;;;;4.30;2.00;;;;;;;23.41;59.04;101277.56;5039412;28;20204;-73
2022/06/12 07:49:01;;;;;;;2.15;1.90;;;;;;;23.20;60.05;101279.91;5037210;28;20223;-73
2022/06/12 07:51:28;;;;;;;3.25;2.10;;;;;;;23.14;60.00;101277.69;5039629;28;20571;-73
2022/06/12 07:53:55;;;;;;;2.50;2.28;;;;;;;23.11;61.63;101269.91;5044120;28;20317;-73
2022/06/12 07:56:23;;;;;;;2.10;2.00;;;;;;;23.05;64.17;101268.53;5040649;28;20203;-73
2022/06/12 07:58:50;;;;;;;3.30;2.38;;;;;;;23.03;65.31;101265.09;5037213;28;20285;-72
2022/06/12 08:01:21;;;;;;;2.13;1.90;;;;;;;23.03;65.45;101257.13;5035062;28;20394;-72
2022/06/12 08:03:51;;;;;;;2.35;2.15;;;;;;;22.99;64.81;101252.97;5034387;28;20227;-74
2022/06/12 08:06:18;;;;;;;2.30;2.10;;;;;;;22.96;63.81;101258.50;5056932;23;20616;-72
2022/06/12 08:08:44;;;;;;;3.90;2.58;;;;;;;22.72;65.58;101242.41;5039088;28;20227;-72
2022/06/12 08:11:11;;;;;;;3.42;2.47;;;;;;;22.57;67.24;101246.97;5037122;28;20357;-73
2022/06/12 08:13:37;;;;;;;3.67;2.60;;;;;;;22.49;68.26;101248.31;5039731;28;20231;-72
2022/06/12 08:16:05;;;;;;;3.33;2.80;;;;;;;22.58;69.20;101244.19;5034714;28;20219;-73
2022/06/12 08:18:33;;;;;;;4.53;2.60;;;;;;;22.60;68.95;101252.06;5037240;28;20195;-73
2022/06/12 08:21:02;;;;;;;2.80;2.45;;;;;;;22.71;68.49;101259.31;5045856;28;20211;-72
2022/06/12 08:23:33;;;;;;;3.08;2.75;;;;;;;22.85;68.40;101257.44;5038921;28;20219;-70
2022/06/12 08:26:03;;;;;;;2.83;2.60;;;;;;;22.99;69.10;101258.28;5046035;28;20321;-73
2022/06/12 08:28:32;;;;;;;3.78;2.60;;;;;;;23.03;66.14;101257.97;5042754;28;20230;-72
2022/06/12 08:31:01;;;;;;;3.85;2.70;;;;;;;23.00;65.41;101246.69;5036924;28;20211;-71
2022/06/12 08:33:27;;;;;;;2.67;2.47;;;;;;;22.99;66.00;101248.50;5040045;28;20230;-71
2022/06/12 08:35:55;;;;;;;4.00;2.60;;;;;;;23.04;65.70;101245.50;5041742;28;20207;-73
2022/06/12 08:38:22;;;;;;;2.55;2.35;;;;;;;23.06;64.34;101233.03;5037081;28;20195;-73
2022/06/12 08:40:54;;;;;;;2.33;2.20;;;;;;;23.11;65.08;101227.38;5021935;28;20784;-73
2022/06/12 08:43:31;;;;;;;2.60;2.40;;;;;;;23.14;63.96;101228.00;5034863;28;20289;-72
2022/06/12 08:46:02;;;;;;;2.60;2.40;;;;;;;23.31;64.37;101236.63;5038645;28;20551;-72
2022/06/12 08:48:37;;;;;;;3.20;2.50;;;;;;;23.58;64.61;101228.50;5039603;28;20299;-73
2022/06/12 08:51:14;;;;;;;3.10;2.45;;;;;;;23.81;66.47;101222.38;5040867;28;20199;-73
2022/06/12 08:53:47;;;;;;;2.65;2.40;;;;;;;24.00;60.02;101221.88;5038059;28;20231;-72
2022/06/12 08:56:19;;;;;;;2.97;2.60;;;;;;;23.97;59.33;101227.47;5037499;28;20206;-70
2022/06/12 08:58:50;;;;;;;2.45;2.25;;;;;;;24.23;62.47;101222.00;5033644;28;20199;-73
2022/06/12 09:01:17;;;;;;;3.97;2.40;;;;;;;24.07;57.26;101219.63;5036031;28;20203;-73
2022/06/12 09:03:47;;;;;;;2.33;2.13;;;;;;;24.28;57.91;101217.19;5039884;28;20215;-72
2022/06/12 09:06:27;;;;;;;2.60;2.22;;;;;;;24.32;58.17;101218.66;5041007;28;20213;-72
2022/06/12 09:09:01;;;;;;;2.55;2.35;;;;;;;24.41;61.46;101211.78;5046074;28;20210;-73
2022/06/12 09:11:34;;;;;;;2.63;2.42;;;;;;;24.55;59.19;101211.63;5035488;28;20203;-71
2022/06/12 09:14:05;;;;;;;3.88;2.63;;;;;;;24.63;59.13;101205.72;5042782;28;20206;-72
2022/06/12 09:16:41;;;;;;;2.45;2.25;;;;;;;24.84;55.65;101207.69;5043470;28;20208;-73
2022/06/12 09:19:13;;;;;;;2.50;2.30;;;;;;;25.16;61.64;101191.00;5033764;28;20195;-73
2022/06/12 09:21:55;;;;;;;2.30;2.10;;;;;;;25.37;60.94;101186.66;5038750;28;20221;-72
2022/06/12 09:24:30;;;;;;;2.60;2.40;;;;;;;25.46;54.32;101196.56;5039467;28;20214;-71
2022/06/12 09:27:04;;;;;;;2.20;2.00;;;;;;;25.51;55.28;101191.72;5036265;28;20207;-73
2022/06/12 09:29:42;;;;;;;2.70;2.50;;;;;;;25.47;53.77;101184.94;5039051;28;20218;-73
2022/06/12 09:32:17;;;;;;;3.30;2.15;;;;;;;25.59;57.59;101172.41;5036033;28;20800;-73
2022/06/12 09:34:55;;;;;;;2.97;2.33;;;;;;;25.76;57.36;101176.38;5036053;28;20198;-73
2022/06/12 09:40:27;;;;;;;1.88;1.75;;;;;;;26.06;48.92;101174.84;5034365;28;20557;-73
2022/06/12 09:43:00;;;;;;;3.08;2.10;;;;;;;26.12;53.05;101162.81;5035643;28;20228;-73
2022/06/12 09:45:33;;;;;;;2.72;1.80;;;;;;;26.14;51.85;101155.50;5027882;28;20199;-72
2022/06/12 09:48:14;;;;;;;2.95;1.80;;;;;;;26.18;49.29;101151.63;5037738;28;20201;-70
2022/06/12 09:50:52;;;;;;;2.15;1.95;;;;;;;26.13;48.57;101149.31;5037855;28;20449;-73
2022/06/12 09:53:42;;;;;;;1.83;1.67;;;;;;;26.34;48.89;101144.00;5035746;28;20218;-72
2022/06/12 09:56:13;;;;;;;4.40;2.10;;;;;;;26.53;50.50;101139.75;5036508;28;20207;-71
2022/06/12 09:58:44;;;;;;;1.88;1.77;;;;;;;26.53;48.71;101139.75;5034958;28;20214;-71
2022/06/12 10:01:17;;;;;;;2.15;1.95;;;;;;;26.54;49.20;101139.63;5038855;28;20596;-72
2022/06/12 10:03:48;;;;;;;2.97;1.90;;;;;;;26.48;47.01;101144.66;5040261;28;20227;-72
2022/06/12 10:06:23;;;;;;;1.92;1.67;;;;;;;26.67;50.12;101130.59;5036017;28;20207;-71
2022/06/12 10:08:58;;;;;;;2.20;2.00;;;;;;;26.80;49.89;101124.00;5040043;28;20267;-71
2022/06/12 10:11:29;;;;;;;1.98;1.83;;;;;;;26.86;48.37;101119.97;5033101;28;20579;-71
2022/06/12 10:14:00;;;;;;;1.88;1.77;;;;;;;26.86;46.79;101125.34;5040777;28;20265;-72
2022/06/12 10:16:31;;;;;;;2.85;1.83;;;;;;;26.98;46.81;101113.56;5038544;28;20694;-72
2022/06/12 10:19:02;;;;;;;1.55;1.45;;;;;;;27.01;46.30;101115.94;5037054;28;20371;-71
2022/06/12 10:21:33;;;;;;;4.32;2.00;;;;;;;27.02;45.87;101114.13;5039504;28;20277;-71
2022/06/12 10:24:01;;;;;;;2.70;1.77;;;;;;;27.18;45.97;101116.28;5033922;28;20204;-72
2022/06/12 10:26:31;;;;;;;3.22;1.80;;;;;;;27.43;45.05;101103.41;5034987;28;20229;-71
2022/06/12 10:29:05;;;;;;;2.90;1.88;;;;;;;27.57;47.58;101095.81;5018352;28;20218;-71
2022/06/12 10:31:34;;;;;;;2.70;1.80;;;;;;;27.53;45.29;101099.75;5038424;28;20534;-72
2022/06/12 10:34:14;;;;;;;1.58;1.48;;;;;;;27.75;46.62;101098.63;5037707;28;20278;-72
2022/06/12 10:36:41;;;;;;;1.92;1.75;;;;;;;27.66;46.93;101102.16;5039439;28;20210;-72
2022/06/12 10:39:14;;;;;;;7.80;2.47;;;;;;;27.57;45.26;101095.81;5032658;28;20687;-72
2022/06/12 10:41:47;;;;;;;1.73;1.63;;;;;;;27.58;45.93;101102.00;5042801;28;20243;-72
2022/06/12 10:44:32;;;;;;;3.05;1.83;;;;;;;27.67;44.44;101098.50;5042766;28;21505;-72
2022/06/12 10:47:10;;;;;;;2.08;1.60;;;;;;;27.48;44.09;101099.34;5039460;28;20207;-71
2022/06/12 10:49:37;;;;;;;2.17;1.40;;;;;;;27.39;44.52;101100.16;5040614;28;20238;-71
2022/06/12 10:52:06;;;;;;;1.95;1.70;;;;;;;27.72;44.95;101092.72;5044381;28;20219;-72
2022/06/12 10:54:34;;;;;;;1.75;1.42;;;;;;;27.80;42.35;101092.03;5039959;28;20195;-72
2022/06/12 10:57:10;;;;;;;1.55;1.45;;;;;;;27.75;42.74;101092.44;5039366;28;20207;-72
2022/06/12 10:59:39;;;;;;;3.03;1.75;;;;;;;28.16;44.20;101093.13;5044544;28;20207;-72
2022/06/12 11:02:32;;;;;;;1.92;1.70;;;;;;;28.46;43.01;101091.25;5033816;28;20572;-72
2022/06/12 11:05:13;;;;;;;3.13;1.70;;;;;;;28.73;41.32;101078.91;5037973;28;20234;-72
2022/06/12 11:07:50;;;;;;;3.55;1.65;;;;;;;29.05;42.66;101083.84;5043861;28;20249;-72
2022/06/12 11:10:28;;;;;;;1.98;1.60;;;;;;;29.02;43.03;101084.13;5042381;28;20269;-72
2022/06/12 11:13:12;;;;;;;2.22;1.90;;;;;;;28.32;43.73;101098.78;5042022;28;20231;-72
2022/06/12 11:15:59;;;;;;;2.55;2.03;;;;;;;27.97;45.24;101094.03;5040238;28;20206;-72
2022/06/12 11:22:33;;;;;;;3.25;2.13;;;;;;;28.04;44.45;101087.09;5037211;28;20234;-72
2022/06/12 11:25:11;;;;;;;3.38;2.40;;;;;;;27.88;45.60;101084.97;5040761;28;20239;-71
2022/06/12 11:27:56;;;;;;;2.22;2.03;;;;;;;28.15;46.54;101078.06;5045485;28;20211;-71
2022/06/12 11:30:39;;;;;;;1.90;1.80;;;;;;;28.29;45.16;101066.88;5043446;28;20226;-71
2022/06/12 11:33:24;;;;;;;3.45;2.10;;;;;;;28.30;43.79;101070.41;5042596;28;20228;-72
2022/06/12 11:35:59;;;;;;;2.05;1.70;;;;;;;28.13;41.85;101070.16;5044137;28;20218;-71
2022/06/12 11:38:41;;;;;;;1.65;1.55;;;;;;;28.32;44.71;101065.75;5046421;28;20200;-72
2022/06/12 11:41:17;;;;;;;1.75;1.65;;;;;;;28.23;43.68;101070.16;5042403;28;20196;-71
2022/06/12 11:43:57;;;;;;;3.35;1.83;;;;;;;28.22;44.00;101065.78;5041428;28;20245;-71
2022/06/12 11:46:35;;;;;;;2.35;2.03;;;;;;;28.35;43.02;101057.41;5043278;28;20200;-71
2022/06/12 11:49:35;;;;;;;1.90;1.80;;;;;;;28.12;41.32;101059.59;5042956;28;20207;-71
2022/06/12 11:52:14;;;;;;;1.80;1.70;;;;;;;28.25;42.65;101049.41;5037344;28;20325;-71
2022/06/12 11:55:05;;;;;;;2.35;2.00;;;;;;;28.09;42.98;101051.81;5042054;28;20364;-71
2022/06/12 11:57:44;;;;;;;2.75;1.95;;;;;;;27.77;44.50;101040.44;5043318;28;20214;-71
2022/06/12 12:00:15;;;;;;;2.72;2.10;;;;;;;27.59;44.53;101055.50;5044508;28;20202;-71
2022/06/12 12:03:01;;;;;;;1.88;1.77;;;;;;;27.43;44.18;101050.72;5038124;28;20241;-71